Latest Weather Observations for Ferny Creek

IDV60801

Issued at 7:52 pm EDT Wednesday 25 November 2020 (issued every 10 minutes, with the page automatically refreshed every 10 minutes)

About weather observations | Map of weather stations | Latest weather observations for VIC | Other Formats
Station Details ID: 086266 Name: FERNY CREEK Lat: -37.87 Lon: 145.35 Height: 512.9 m
Data from the previous 72 hours. | See also: Recent months at Ferny Creek
Date/Time
EDT
Temp
°C
App
Temp
°C
Dew
Point
°C
Rel
Hum
%
Delta-T
°C
Wind Press
QNH
hPa
Press
MSL
hPa
Rain since
9am
mm
Dir  Spd
km/h
Gust
km/h
Spd
kts
Gust
kts
25/07:30pm 23.1 24.4 14.1 57 5.4 CALM 0 0 0 0 1010.8 1010.0 0.0
25/07:00pm 23.3 24.1 13.8 55 5.7 WNW 2 7 1 4 1010.5 1009.8 0.0
25/06:30pm 23.8 24.0 13.1 51 6.3 NW 4 9 2 5 1010.4 1009.7 0.0
25/06:00pm 24.1 24.3 13.0 50 6.6 NW 4 9 2 5 1010.3 1009.6 0.0
25/05:30pm 25.5 26.1 14.3 50 6.8 N 4 9 2 5 1010.2 1009.5 0.0
25/05:00pm 23.9 23.5 12.5 49 6.7 NW 6 15 3 8 1010.5 1009.8 0.0
25/04:30pm 24.3 23.8 11.9 45 7.2 NW 6 15 3 8 1010.4 1009.7 0.0
25/04:00pm 25.1 23.4 11.3 42 8.0 NW 11 20 6 11 1010.5 1009.8 0.0
25/03:30pm 25.0 24.5 12.6 46 7.3 NNW 7 19 4 10 1010.7 1009.9 0.0
25/03:00pm 24.9 24.5 12.5 46 7.3 N 6 11 3 6 1010.8 1010.0 0.0
25/02:30pm 24.3 23.8 12.6 48 6.9 NNW 7 17 4 9 1011.0 1010.2 0.0
25/02:00pm 23.6 22.7 12.6 50 6.5 N 9 19 5 10 1011.2 1010.4 0.0
25/01:30pm 22.5 22.1 13.0 55 5.6 N 7 15 4 8 1011.5 1010.8 0.0
25/01:00pm 22.3 21.9 13.1 56 5.4 N 7 19 4 10 1011.6 1010.9 0.0
25/12:30pm 22.1 21.2 13.7 59 5.0 NNW 11 26 6 14 1011.9 1011.2 0.0
25/12:00pm 20.4 19.3 12.1 59 4.8 NNW 9 26 5 14 1012.0 1011.3 0.0
25/11:30am 19.9 19.2 11.4 58 4.8 NNW 6 13 3 7 1011.9 1011.2 0.0
25/11:00am 19.6 19.1 11.9 61 4.4 NNW 6 11 3 6 1012.2 1011.5 0.0
25/10:30am 19.1 19.1 12.4 65 3.8 NNW 4 9 2 5 1012.4 1011.7 0.0
25/10:00am 18.0 17.9 12.0 68 3.4 NW 4 9 2 5 1012.5 1011.8 0.0
25/09:30am 17.2 16.7 10.6 65 3.6 N 4 6 2 3 1012.7 1011.9 0.0
25/09:00am 16.7 16.1 10.5 67 3.4 NE 4 9 2 5 1012.8 1012.0 0.0
25/08:30am 17.2 16.6 10.3 64 3.8 NE 4 7 2 4 1012.7 1011.9 0.0
25/08:00am 16.4 15.5 9.3 63 3.8 NE 4 7 2 4 1012.7 1011.9 0.0
25/07:30am 15.8 15.3 9.2 65 3.5 NE 2 4 1 2 1012.7 1011.9 0.0
25/07:00am 14.2 14.3 10.2 77 2.1 CALM 0 0 0 0 1012.8 1012.0 0.0
25/06:30am 12.0 11.8 9.0 82 1.5 CALM 0 0 0 0 1012.7 1011.9 0.0
25/06:00am 11.2 10.7 7.9 80 1.7 CALM 0 0 0 0 1012.4 1011.7 0.0
25/05:30am 11.0 10.5 7.9 81 1.5 CALM 0 0 0 0 1012.1 1011.4 0.0
25/05:00am 11.0 10.2 8.1 82 1.5 NE 2 4 1 2 1012.1 1011.4 0.0
25/04:30am 11.0 9.8 8.1 82 1.5 ENE 4 6 2 3 1012.2 1011.5 0.0
25/04:00am 11.3 10.9 8.3 82 1.5 CALM 0 0 0 0 1012.4 1011.7 0.0
25/03:30am 11.5 11.2 8.7 83 1.4 CALM 0 2 0 1 1012.5 1011.8 0.0
25/03:00am 11.3 10.7 8.9 85 1.2 SE 2 4 1 2 1012.8 1012.0 0.0
25/02:30am 11.3 10.6 8.7 84 1.3 SE 2 4 1 2 1013.1 1012.3 0.0
25/02:00am 11.4 10.7 8.6 83 1.4 SE 2 4 1 2 1013.2 1012.5 0.0
25/01:30am 11.3 11.1 9.0 86 1.2 CALM 0 0 0 0 1013.6 1012.9 0.0
25/01:00am 11.5 11.4 9.4 87 1.1 CALM 0 0 0 0 1014.0 1013.3 0.0
25/12:30am 11.5 11.5 9.8 89 0.9 CALM 0 0 0 0 1014.5 1013.8 0.0
25/12:00am 11.5 11.5 9.9 90 0.8 CALM 0 0 0 0 1014.8 1014.0 0.0
 
Date/Time
EDT
Temp
°C
App
Temp
°C
Dew
Point
°C
Rel
Hum
%
Delta-T
°C
Wind Press
QNH
hPa
Press
MSL
hPa
Rain since
9am
mm
Dir  Spd
km/h
Gust
km/h
Spd
kts
Gust
kts
24/11:30pm 11.3 11.3 9.9 91 0.7 CALM 0 0 0 0 1015.0 1014.3 0.0
24/11:00pm 11.9 11.7 10.3 90 0.8 ESE 2 6 1 3 1015.1 1014.4 0.0
24/10:30pm 12.3 11.8 10.9 91 0.8 ENE 4 6 2 3 1015.3 1014.6 0.0
24/10:00pm 12.5 12.1 11.1 91 0.8 E 4 6 2 3 1015.4 1014.7 0.0
24/09:30pm 12.6 12.2 11.0 90 0.9 ENE 4 6 2 3 1015.4 1014.7 0.0
24/09:00pm 12.7 11.9 10.9 89 1.0 ENE 6 7 3 4 1015.2 1014.5 0.0
24/08:30pm 13.1 12.6 10.8 86 1.2 E 4 7 2 4 1015.1 1014.4 0.0
24/08:00pm 13.4 12.9 10.8 84 1.4 ESE 4 6 2 3 1015.0 1014.3 0.0
24/07:30pm 13.8 13.9 10.0 78 2.0 CALM 0 0 0 0 1014.9 1014.2 0.0
24/07:00pm 14.2 13.4 9.8 75 2.3 W 4 6 2 3 1014.4 1013.7 0.0
24/06:30pm 14.7 14.1 10.3 75 2.4 SSW 4 7 2 4 1014.1 1013.4 0.0
24/06:00pm 14.8 14.1 10.2 74 2.5 SSW 4 9 2 5 1014.0 1013.3 0.0
24/05:30pm 14.7 14.5 10.5 76 2.3 SW 2 4 1 2 1013.9 1013.2 0.0
24/05:00pm 14.2 13.4 9.6 74 2.4 SSE 4 9 2 5 1013.8 1013.1 0.0
24/04:30pm 14.5 14.1 9.9 74 2.4 SSW 2 7 1 4 1013.9 1013.2 0.0
24/04:00pm 14.6 13.8 9.6 72 2.6 S 4 9 2 5 1014.0 1013.3 0.0
24/03:30pm 15.0 14.0 8.9 67 3.2 SSW 4 7 2 4 1014.1 1013.4 0.0
24/03:00pm 14.8 14.6 10.4 75 2.4 WSW 2 6 1 3 1014.4 1013.7 0.0
24/02:30pm 14.4 13.6 9.8 74 2.4 WSW 4 7 2 4 1014.9 1014.2 0.0
24/02:00pm 14.3 13.1 9.7 74 2.4 SW 6 13 3 7 1014.9 1014.2 0.0
24/01:30pm 14.6 13.8 9.6 72 2.6 WSW 4 9 2 5 1015.1 1014.4 0.0
24/01:00pm 14.8 14.0 9.8 72 2.7 SW 4 7 2 4 1015.2 1014.5 0.0
24/12:30pm 12.8 11.4 8.9 77 2.0 SW 6 15 3 8 1015.2 1014.5 0.0
24/12:00pm 13.1 12.4 9.9 81 1.7 W 4 7 2 4 1015.6 1014.9 0.0
24/11:30am 12.0 10.6 8.7 80 1.7 WSW 6 11 3 6 1015.6 1014.9 0.0
24/11:00am 12.7 11.3 8.8 77 2.0 W 6 11 3 6 1015.6 1014.9 0.0
24/10:30am 12.2 11.2 8.9 80 1.7 WSW 4 9 2 5 1015.3 1014.6 0.0
24/10:00am 11.1 10.0 8.5 84 1.3 W 4 6 2 3 1015.1 1014.4 0.0
24/09:30am 11.2 10.7 9.5 89 0.9 WSW 2 6 1 3 1014.6 1013.9 0.0
24/09:00am 10.4 10.1 8.8 90 0.8 CALM 0 0 0 0 1014.3 1013.6 6.0
24/08:30am 10.1 9.6 8.0 87 1.0 CALM 0 0 0 0 1014.3 1013.6 6.0
24/08:00am 10.1 9.5 7.5 84 1.3 CALM 0 2 0 1 1014.4 1013.7 6.0
24/07:30am 10.0 9.0 7.4 84 1.3 ESE 2 4 1 2 1014.2 1013.5 6.0
24/07:00am 10.0 9.6 8.1 88 0.9 CALM 0 0 0 0 1014.3 1013.6 6.0
24/06:30am 8.9 8.4 7.8 93 0.5 CALM 0 4 0 2 1014.0 1013.3 6.0
24/06:00am 9.4 8.2 8.2 92 0.6 WSW 4 9 2 5 1014.1 1013.4 6.0
24/05:30am 9.4 8.3 8.3 93 0.5 S 4 9 2 5 1013.6 1012.9 6.0
24/05:00am 9.5 8.7 8.1 91 0.7 SW 2 6 1 3 1013.2 1012.5 6.0
24/04:30am 9.4 8.6 8.0 91 0.7 SW 2 9 1 5 1013.0 1012.2 6.0
24/04:00am 9.3 8.5 8.1 92 0.6 E 2 6 1 3 1013.3 1012.6 6.0
24/03:30am 9.6 8.8 8.2 91 0.7 SE 2 4 1 2 1013.6 1012.9 6.0
24/03:00am 9.8 8.7 8.6 92 0.6 S 4 11 2 6 1014.1 1013.4 6.0
24/02:30am 10.0 8.9 8.3 89 0.9 SSW 4 9 2 5 1014.9 1014.2 6.0
24/02:00am 10.1 8.9 8.2 88 0.9 SW 4 11 2 6 1015.0 1014.3 6.0
24/01:30am 10.3 9.3 8.7 90 0.8 SW 4 7 2 4 1014.9 1014.2 6.0
24/01:00am 10.5 9.9 8.8 89 0.9 SW 2 7 1 4 1015.0 1014.3 6.0
24/12:30am 10.5 9.0 8.6 88 1.0 SSW 6 13 3 7 1015.1 1014.4 6.0
24/12:00am 10.5 9.3 7.9 84 1.3 SSE 4 9 2 5 1015.2 1014.5 6.0
 
Date/Time
EDT
Temp
°C
App
Temp
°C
Dew
Point
°C
Rel
Hum
%
Delta-T
°C
Wind Press
QNH
hPa
Press
MSL
hPa
Rain since
9am
mm
Dir  Spd
km/h
Gust
km/h
Spd
kts
Gust
kts
23/11:30pm 10.6 9.7 9.2 91 0.7 E 4 9 2 5 1015.3 1014.6 6.0
23/11:00pm 10.6 9.8 9.7 94 0.5 SE 4 13 2 7 1015.4 1014.7 6.0
23/10:30pm 10.8 9.8 10.2 96 0.3 SW 6 15 3 8 1015.7 1015.0 6.0
23/10:00pm 10.9 10.3 10.4 97 0.3 SE 4 11 2 6 1015.4 1014.7 6.0
23/09:30pm 11.0 10.5 10.7 98 0.2 ESE 4 7 2 4 1015.0 1014.3 6.0
23/09:00pm 11.2 10.7 10.9 98 0.2 ESE 4 13 2 7 1014.8 1014.0 6.0
23/08:30pm 11.6 11.2 11.1 97 0.3 SSW 4 6 2 3 1014.2 1013.5 6.0
23/08:00pm 11.6 11.5 10.7 94 0.5 SW 2 6 1 3 1013.9 1013.2 6.0
23/07:30pm 11.9 11.4 10.6 92 0.7 WSW 4 9 2 5 1013.8 1013.1 6.0
23/07:00pm 12.2 11.2 10.9 92 0.7 SW 7 13 4 7 1013.4 1012.7 6.0
23/06:30pm 12.4 11.6 11.0 91 0.8 WSW 6 11 3 6 1013.2 1012.5 6.0
23/06:00pm 12.4 11.4 11.0 91 0.8 WSW 7 19 4 10 1013.0 1012.2 6.0
23/05:30pm 12.8 12.3 11.9 94 0.5 WSW 6 13 3 7 1012.9 1012.1 6.0
23/05:00pm 12.8 12.1 12.0 95 0.4 WSW 7 15 4 8 1012.7 1011.9 6.0
23/04:30pm 13.2 12.7 12.7 97 0.3 WSW 7 15 4 8 1012.4 1011.7 6.0
23/04:00pm 13.6 13.6 13.6 100 0.0 W 6 13 3 7 1012.2 1011.5 6.0
23/03:30pm 13.4 13.3 13.4 100 0.0 W 6 11 3 6 1012.1 1011.4 6.0
23/03:00pm 13.3 13.2 13.3 100 0.0 W 6 15 3 8 1012.3 1011.6 6.0
23/02:30pm 12.8 12.5 12.8 100 0.0 W 6 13 3 7 1012.3 1011.6 6.0
23/02:00pm 12.7 12.2 12.7 100 0.0 WSW 7 20 4 11 1012.1 1011.4 6.0
23/01:30pm 13.4 13.1 13.4 100 0.0 W 7 15 4 8 1012.0 1011.3 6.0
23/01:00pm 13.4 13.1 13.4 100 0.0 WSW 7 20 4 11 1011.8 1011.1 6.0
23/12:30pm 13.3 12.6 13.3 100 0.0 WSW 9 24 5 13 1011.6 1010.9 6.0
23/12:00pm 13.4 12.8 13.4 100 0.0 WSW 9 20 5 11 1011.4 1010.6 6.0
23/11:30am 13.5 13.5 13.5 100 0.0 W 6 11 3 6 1011.3 1010.5 6.0
23/11:00am 13.6 13.0 13.6 100 0.0 W 9 22 5 12 1011.2 1010.4 2.8
23/10:30am 14.3 14.5 14.3 100 0.0 SSW 6 15 3 8 1010.9 1010.1 1.6
23/10:00am 14.2 15.5 14.2 100 0.0 CALM 0 0 0 0 1011.0 1010.2 0.0
23/09:30am 14.5 15.2 14.5 100 0.0 WSW 4 7 2 4 1011.0 1010.2 0.0
23/09:00am 14.1 12.9 14.1 100 0.0 E 13 20 7 11 1009.2 1008.4 62.4
23/08:30am 13.8 13.3 13.8 100 0.0 SW 9 17 5 9 1010.8 1010.0 61.6
23/08:00am 14.9 15.4 14.9 100 0.0 W 6 24 3 13 1010.7 1009.9 57.6
23/07:30am 14.8 14.6 14.8 100 0.0 W 9 19 5 10 1009.8 1009.1 48.8
23/07:00am 14.7 15.1 14.7 100 0.0 W 6 11 3 6 1009.1 1008.3 46.2
23/06:30am 14.8 15.6 14.8 100 0.0 SSW 4 11 2 6 1009.2 1008.4 38.2
23/06:00am 15.0 15.9 15.0 100 0.0 WSW 4 7 2 4 1008.9 1008.1 35.0
23/05:30am 15.0 15.9 15.0 100 0.0 SSE 4 7 2 4 1008.9 1008.1 34.0
23/05:00am 15.3 17.0 15.3 100 0.0 CALM 0 0 0 0 1008.8 1008.0 33.6
23/04:30am 15.1 15.9 14.9 99 0.1 W 4 6 2 3 1009.0 1008.2 28.6
23/04:00am 14.8 15.5 14.5 98 0.2 WNW 4 7 2 4 1009.2 1008.4 24.0
23/03:30am 15.0 15.1 14.0 94 0.6 NW 6 11 3 6 1009.3 1008.5 21.8
23/03:00am 15.3 15.4 14.0 92 0.8 NW 6 9 3 5 1009.3 1008.5 21.2
23/02:30am 14.9 15.1 14.7 99 0.1 NW 7 11 4 6 1009.8 1009.1 21.0
23/02:00am 15.0 14.9 15.0 100 0.0 NW 9 17 5 9 1010.4 1009.7 20.8
23/01:30am 15.0 15.5 15.0 100 0.0 NW 6 13 3 7 1011.5 1010.8 20.4
23/01:00am 15.4 15.5 15.4 100 0.0 NW 9 15 5 8 1012.1 1011.4 20.0
23/12:30am 15.5 16.0 15.5 100 0.0 NW 7 17 4 9 1012.1 1011.4 18.6
23/12:00am 15.6 16.1 15.0 96 0.4 NW 6 15 3 8 1012.3 1011.6 16.6
 
Date/Time
EDT
Temp
°C
App
Temp
°C
Dew
Point
°C
Rel
Hum
%
Delta-T
°C
Wind Press
QNH
hPa
Press
MSL
hPa
Rain since
9am
mm
Dir  Spd
km/h
Gust
km/h
Spd
kts
Gust
kts
22/11:30pm 15.8 15.5 14.5 92 0.8 NNW 9 28 5 15 1012.3 1011.6 15.6
22/11:00pm 16.6 17.1 14.1 85 1.5 N 4 6 2 3 1011.4 1010.6 13.0
22/10:30pm 16.3 16.9 13.2 82 1.8 N 2 4 1 2 1011.9 1011.2 13.0
22/10:00pm 16.3 17.7 14.5 89 1.1 CALM 0 2 0 1 1012.3 1011.6 13.0
22/09:30pm 16.1 16.8 15.5 96 0.4 NE 6 11 3 6 1012.2 1011.5 13.0
22/09:00pm 16.1 16.9 15.9 99 0.1 NE 6 11 3 6 1012.2 1011.5 13.0
22/08:30pm 15.9 15.6 15.4 97 0.3 ENE 11 20 6 11 1012.2 1011.5 13.0
22/08:00pm 16.4 17.1 16.1 98 0.2 ESE 7 13 4 7 1013.5 1012.8 12.6
22/07:58pm 16.2 17.0 15.9 98 0.2 SSE 6 13 3 7 1013.4 1012.7 12.4

Other formats

Comma delimited format used in spreadsheet applications
http://www.bom.gov.au/fwo/IDV60801/IDV60801.94872.axf

JavaScript Object Notation format (JSON) in row-major order
http://www.bom.gov.au/fwo/IDV60801/IDV60801.94872.json

Data quality

Most of these data are generated automatically and are frequently updated. Quality checks on data are not normally performed. It is possible for incorrect values to appear. Refer to information at About Latest Weather Observations and please check the disclaimer before using these data.